Terminal Aerodrome Forecast
Issued by NWS Chicago, IL

Home | Current Version | Previous Version | Text Only | Print | Product List | Glossary On
Versions: 1 2 3 4 5 6 7 8 9 10 11 12 13 14 15 16 17 18 19 20 21 22 23 24 25 26 27 28 29 30 31
000
FTUS43 KLOT 201700
TAFRFD
TAF
KRFD 201734Z 2018/2118 23011G19KT P6SM VCSH SCT035 BKN060 BKN100
      TEMPO 2018/2020 5SM -TSRA SCT015 BKN040CB
     FM202200 27010KT P6SM SCT040
     FM210800 29012G17KT P6SM FEW030
     FM211700 34015G24KT P6SM VCSH BKN030=

USA.gov is the U.S. government's official web portal to all federal, state and local government web resources and services.